Time;durP1;ratioP1;P1;durP2;ratioP2;P2;SDS_P1;SDS_P2;PMS_P1;PMS_P2;Temp;Humidity;BMP_temperature;BMP_pressure;BME280_temperature;BME280_humidity;BME280_pressure;Samples;Min_cycle;Max_cycle;Signal;HPM_P1;HPM_P2
2023/07/04 00:02:23;;;;;;;2.43;2.03;;;22.80;68.90;;;;;;5033322;28;20217;-73
2023/07/04 00:04:50;;;;;;;2.50;1.93;;;22.80;69.20;;;;;;5038616;28;20210;-73
2023/07/04 00:07:20;;;;;;;2.83;2.03;;;22.80;69.00;;;;;;5044801;28;20537;-73
2023/07/04 00:09:47;;;;;;;2.70;2.00;;;22.90;69.10;;;;;;5049814;28;20206;-73
2023/07/04 00:12:14;;;;;;;2.57;1.87;;;22.90;69.00;;;;;;5038125;28;20217;-74
2023/07/04 00:14:42;;;;;;;2.97;2.17;;;22.90;68.80;;;;;;5038539;28;20221;-74
2023/07/04 00:17:09;;;;;;;2.87;1.90;;;22.90;68.80;;;;;;5044196;28;20202;-73
2023/07/04 00:19:39;;;;;;;3.43;1.97;;;22.90;68.80;;;;;;5044301;28;20202;-74
2023/07/04 00:22:10;;;;;;;2.00;1.80;;;22.90;69.10;;;;;;5014264;28;20268;-73
2023/07/04 00:24:37;;;;;;;2.23;2.03;;;22.80;69.30;;;;;;5053625;28;20664;-73
2023/07/04 00:27:05;;;;;;;2.17;1.70;;;22.80;69.50;;;;;;5053374;28;20213;-73
2023/07/04 00:29:32;;;;;;;2.90;2.50;;;22.70;69.60;;;;;;5072231;28;20204;-73
2023/07/04 00:32:01;;;;;;;2.40;1.90;;;22.70;69.80;;;;;;5071987;28;20225;-73
2023/07/04 00:34:28;;;;;;;2.70;1.80;;;22.70;69.70;;;;;;5064142;28;20570;-73
2023/07/04 00:36:59;;;;;;;2.37;2.17;;;22.70;69.80;;;;;;5052176;28;20206;-73
2023/07/04 00:39:26;;;;;;;2.33;1.93;;;22.70;69.90;;;;;;5049635;28;20213;-73
2023/07/04 00:41:54;;;;;;;2.63;1.77;;;22.70;69.90;;;;;;5051638;28;20229;-74
2023/07/04 00:44:24;;;;;;;2.33;2.00;;;22.80;70.00;;;;;;5068959;28;20205;-72
2023/07/04 00:46:54;;;;;;;1.93;1.60;;;22.80;70.00;;;;;;5060854;28;20263;-74
2023/07/04 00:49:26;;;;;;;2.10;1.90;;;22.80;70.90;;;;;;5051275;28;20209;-73
2023/07/04 00:52:01;;;;;;;2.07;1.87;;;22.80;70.00;;;;;;5037825;28;20256;-73
2023/07/04 00:54:32;;;;;;;2.23;1.83;;;22.80;70.50;;;;;;5033561;28;20194;-73
2023/07/04 00:57:02;;;;;;;2.20;2.00;;;22.70;70.40;;;;;;5037722;28;21221;-73
2023/07/04 00:59:33;;;;;;;1.93;1.53;;;22.80;70.50;;;;;;5037494;28;20272;-73
2023/07/04 01:01:59;;;;;;;2.23;1.90;;;22.80;70.30;;;;;;5036457;28;20211;-74
2023/07/04 01:04:26;;;;;;;3.00;2.10;;;22.80;70.20;;;;;;5038232;28;20566;-73
2023/07/04 01:07:00;;;;;;;2.23;2.00;;;22.80;70.30;;;;;;5039603;28;20218;-74
2023/07/04 01:09:28;;;;;;;2.77;1.83;;;22.80;70.40;;;;;;5037105;28;20195;-73
2023/07/04 01:11:56;;;;;;;3.23;1.60;;;22.80;70.40;;;;;;5025510;28;20662;-73
2023/07/04 01:14:25;;;;;;;2.10;1.80;;;22.80;70.50;;;;;;5038654;28;20202;-73
2023/07/04 01:16:53;;;;;;;2.50;2.00;;;22.80;70.60;;;;;;5037349;28;20222;-73
2023/07/04 01:19:28;;;;;;;3.30;2.07;;;22.80;70.50;;;;;;5037842;28;20312;-73
2023/07/04 01:22:07;;;;;;;2.20;1.73;;;22.80;70.80;;;;;;5039530;28;20213;-73
2023/07/04 01:24:43;;;;;;;1.70;1.60;;;22.70;71.10;;;;;;5044937;28;20205;-73
2023/07/04 01:27:14;;;;;;;2.20;1.87;;;22.60;71.30;;;;;;5037199;28;20633;-73
2023/07/04 01:29:41;;;;;;;1.90;1.77;;;22.60;71.30;;;;;;5037480;28;20200;-74
2023/07/04 01:32:09;;;;;;;3.00;1.80;;;22.50;71.60;;;;;;5034326;28;20551;-74
2023/07/04 01:34:35;;;;;;;2.47;1.83;;;22.50;72.00;;;;;;5036265;28;20209;-74
2023/07/04 01:37:02;;;;;;;3.43;1.80;;;22.40;72.40;;;;;;5038678;28;20224;-73
2023/07/04 01:39:29;;;;;;;2.20;1.87;;;22.30;72.60;;;;;;5036381;28;20229;-74
2023/07/04 01:41:56;;;;;;;2.30;2.03;;;22.30;72.70;;;;;;5039097;28;20654;-74
2023/07/04 01:44:24;;;;;;;2.97;1.70;;;22.30;73.00;;;;;;5042204;28;20214;-73
2023/07/04 01:46:52;;;;;;;2.03;1.83;;;22.30;73.20;;;;;;5039933;28;20210;-73
2023/07/04 01:49:19;;;;;;;2.33;1.80;;;22.20;73.50;;;;;;5039089;28;20292;-73
2023/07/04 01:51:47;;;;;;;2.30;1.60;;;22.20;73.50;;;;;;5039470;28;20831;-73
2023/07/04 01:54:17;;;;;;;1.90;1.80;;;22.30;73.40;;;;;;5036324;28;20687;-73
2023/07/04 01:56:46;;;;;;;2.93;1.83;;;22.30;73.60;;;;;;5037073;28;20206;-73
2023/07/04 01:59:13;;;;;;;2.17;1.80;;;22.20;73.80;;;;;;5036758;28;20214;-73
2023/07/04 02:01:43;;;;;;;2.63;1.90;;;22.30;73.90;;;;;;5037104;28;20570;-73
2023/07/04 02:04:09;;;;;;;1.70;1.60;;;22.30;74.10;;;;;;5047928;28;20213;-73
2023/07/04 02:06:36;;;;;;;3.73;1.80;;;22.20;74.20;;;;;;5040397;28;20309;-72
2023/07/04 02:09:04;;;;;;;2.47;1.80;;;22.20;74.20;;;;;;5048882;28;20215;-73
2023/07/04 02:11:30;;;;;;;2.90;1.80;;;22.20;74.40;;;;;;5038060;28;20293;-73
2023/07/04 02:13:59;;;;;;;2.03;1.77;;;22.20;74.40;;;;;;5039743;28;20202;-73
2023/07/04 02:16:26;;;;;;;2.60;1.87;;;22.20;75.00;;;;;;5036660;28;20222;-73
2023/07/04 02:18:54;;;;;;;2.03;1.83;;;22.20;75.10;;;;;;5039808;28;20233;-73
2023/07/04 02:21:21;;;;;;;2.17;1.70;;;22.10;75.10;;;;;;5038915;28;20218;-73
2023/07/04 02:23:48;;;;;;;2.63;1.93;;;22.10;75.20;;;;;;5043599;28;20259;-72
2023/07/04 02:26:15;;;;;;;1.90;1.70;;;22.10;75.60;;;;;;5037619;28;20247;-74
2023/07/04 02:28:42;;;;;;;2.30;1.80;;;22.00;75.60;;;;;;5038227;28;20208;-72
2023/07/04 02:31:08;;;;;;;4.30;2.00;;;22.10;75.60;;;;;;5041266;28;20202;-72
2023/07/04 02:33:35;;;;;;;2.20;1.93;;;22.10;75.50;;;;;;5035783;28;20300;-73
2023/07/04 02:36:04;;;;;;;2.10;1.90;;;22.10;75.60;;;;;;5036242;28;20197;-73
2023/07/04 02:38:30;;;;;;;2.20;1.70;;;22.10;75.60;;;;;;5037310;28;20233;-72
2023/07/04 02:40:57;;;;;;;2.60;1.90;;;22.10;75.50;;;;;;5038222;28;20204;-74
2023/07/04 02:43:24;;;;;;;2.33;1.93;;;22.10;75.70;;;;;;5035594;28;20218;-74
2023/07/04 02:45:51;;;;;;;3.43;1.83;;;22.10;75.80;;;;;;5036992;28;20202;-74
2023/07/04 02:48:19;;;;;;;1.80;1.70;;;22.00;76.00;;;;;;5036337;28;20205;-74
2023/07/04 02:50:46;;;;;;;1.87;1.60;;;22.00;76.10;;;;;;5034910;28;20305;-73
2023/07/04 02:53:20;;;;;;;2.10;1.90;;;21.90;76.50;;;;;;5035490;28;20649;-73
2023/07/04 02:55:47;;;;;;;2.80;1.90;;;21.90;76.80;;;;;;5037455;28;20209;-74
2023/07/04 02:58:14;;;;;;;2.53;1.90;;;21.80;76.70;;;;;;5035691;28;20201;-73
2023/07/04 03:00:41;;;;;;;2.27;2.00;;;21.90;76.90;;;;;;5045263;28;20224;-73
2023/07/04 03:03:08;;;;;;;2.43;1.90;;;21.80;77.30;;;;;;5046270;28;20209;-73
2023/07/04 03:05:35;;;;;;;1.97;1.80;;;21.70;77.30;;;;;;5055952;28;20210;-73
2023/07/04 03:08:02;;;;;;;2.37;2.13;;;21.70;77.30;;;;;;5042899;28;20210;-73
2023/07/04 03:10:31;;;;;;;2.83;1.90;;;21.80;77.60;;;;;;5052592;28;20866;-73
2023/07/04 03:12:58;;;;;;;1.90;1.80;;;21.80;77.80;;;;;;5036435;28;20211;-74
2023/07/04 03:15:26;;;;;;;2.50;2.30;;;21.80;77.60;;;;;;5036397;28;20553;-74
2023/07/04 03:17:53;;;;;;;3.07;2.33;;;21.90;77.50;;;;;;5051443;28;20264;-73
2023/07/04 03:20:20;;;;;;;2.37;2.10;;;21.90;77.40;;;;;;5047753;28;20231;-73
2023/07/04 03:22:47;;;;;;;2.17;1.97;;;21.90;77.50;;;;;;5046225;28;20225;-73
2023/07/04 03:25:15;;;;;;;2.63;1.90;;;21.80;78.00;;;;;;5054383;28;20249;-73
2023/07/04 03:27:44;;;;;;;2.50;2.10;;;21.60;78.60;;;;;;5060310;28;20487;-74
2023/07/04 03:30:12;;;;;;;2.47;2.03;;;21.50;79.10;;;;;;5062352;28;20233;-74
2023/07/04 03:32:39;;;;;;;2.23;2.00;;;21.50;79.40;;;;;;5044670;28;20211;-74
2023/07/04 03:35:07;;;;;;;2.07;1.67;;;21.50;79.50;;;;;;5039242;28;20233;-73
2023/07/04 03:37:36;;;;;;;3.03;2.17;;;21.50;79.70;;;;;;5040143;28;20586;-74
2023/07/04 03:40:07;;;;;;;2.87;2.20;;;21.40;79.80;;;;;;5041884;28;20581;-73
2023/07/04 03:42:35;;;;;;;2.23;1.80;;;21.40;79.80;;;;;;5043710;28;20294;-74
2023/07/04 03:45:05;;;;;;;2.30;2.10;;;21.40;80.00;;;;;;5044579;28;20259;-74
2023/07/04 03:47:32;;;;;;;2.30;2.00;;;21.50;79.70;;;;;;5039307;28;20206;-74
2023/07/04 03:49:59;;;;;;;2.80;2.40;;;21.50;80.00;;;;;;5039952;28;20198;-74
2023/07/04 03:52:26;;;;;;;2.10;1.90;;;21.50;80.00;;;;;;5040538;28;20214;-74
2023/07/04 03:54:53;;;;;;;2.77;1.90;;;21.50;80.00;;;;;;5039696;28;20194;-73
2023/07/04 03:57:20;;;;;;;3.53;2.47;;;21.50;80.00;;;;;;5038967;28;20228;-73
2023/07/04 03:59:47;;;;;;;2.73;2.40;;;21.60;80.00;;;;;;5039836;28;20572;-74
2023/07/04 04:02:16;;;;;;;4.40;2.23;;;21.40;80.20;;;;;;5040298;28;20206;-74
2023/07/04 04:04:43;;;;;;;3.07;2.37;;;21.40;81.30;;;;;;5037585;28;20222;-74
2023/07/04 04:07:11;;;;;;;2.77;2.23;;;21.40;80.50;;;;;;5045292;28;20221;-74
2023/07/04 04:09:39;;;;;;;2.40;2.20;;;21.40;80.70;;;;;;5045645;28;20214;-74
2023/07/04 04:12:07;;;;;;;3.17;2.20;;;21.40;80.70;;;;;;5038658;28;20242;-74
2023/07/04 04:14:36;;;;;;;3.47;2.10;;;21.40;80.60;;;;;;5038800;28;20216;-74
2023/07/04 04:17:04;;;;;;;2.77;2.20;;;21.40;80.80;;;;;;5036686;28;20208;-73
2023/07/04 04:19:33;;;;;;;3.73;3.00;;;21.30;80.80;;;;;;5043563;28;20225;-74
2023/07/04 04:21:59;;;;;;;3.00;2.40;;;21.30;81.90;;;;;;5043049;28;20206;-74
2023/07/04 04:24:26;;;;;;;2.33;2.13;;;21.30;81.00;;;;;;5038818;28;21716;-74
2023/07/04 04:26:53;;;;;;;2.63;2.43;;;21.40;81.00;;;;;;5039725;28;20218;-73
2023/07/04 04:29:22;;;;;;;4.53;2.77;;;21.30;81.10;;;;;;5038240;28;20204;-74
2023/07/04 04:31:50;;;;;;;3.37;2.30;;;21.40;81.10;;;;;;5044834;28;20237;-74
2023/07/04 04:34:17;;;;;;;3.43;2.37;;;21.40;81.30;;;;;;5042950;28;20213;-73
2023/07/04 04:36:46;;;;;;;2.63;2.10;;;21.30;81.30;;;;;;5048199;28;20205;-74
2023/07/04 04:39:13;;;;;;;3.63;2.40;;;21.30;81.40;;;;;;5055610;28;20225;-74
2023/07/04 04:41:41;;;;;;;2.30;2.00;;;21.40;81.30;;;;;;5049157;28;20249;-74
2023/07/04 04:44:08;;;;;;;2.67;2.40;;;21.40;81.20;;;;;;5030500;28;20213;-74
2023/07/04 04:46:36;;;;;;;4.30;2.43;;;21.40;81.30;;;;;;5053679;28;20392;-74
2023/07/04 04:49:03;;;;;;;3.80;2.40;;;21.40;81.40;;;;;;5050333;28;20222;-73
2023/07/04 04:51:31;;;;;;;4.70;2.40;;;21.40;81.60;;;;;;5053067;28;20209;-73
2023/07/04 04:54:00;;;;;;;4.30;2.37;;;21.40;81.60;;;;;;5044537;28;20203;-74
2023/07/04 04:56:28;;;;;;;11.33;2.43;;;21.50;81.60;;;;;;5055031;28;20208;-73
2023/07/04 04:58:54;;;;;;;4.93;2.60;;;21.50;81.50;;;;;;5044599;28;20214;-73
2023/07/04 05:01:23;;;;;;;4.07;2.77;;;21.50;81.60;;;;;;5051892;28;20684;-73
2023/07/04 05:03:52;;;;;;;3.10;2.53;;;21.50;81.80;;;;;;5049146;28;20236;-73
2023/07/04 05:06:19;;;;;;;3.80;2.73;;;21.50;81.90;;;;;;5044472;28;20635;-72
2023/07/04 05:08:46;;;;;;;4.83;2.87;;;21.60;82.60;;;;;;5038401;28;20207;-72
2023/07/04 05:11:15;;;;;;;5.47;2.70;;;21.50;82.00;;;;;;5042827;28;20204;-73
2023/07/04 05:13:44;;;;;;;3.63;2.87;;;21.60;82.20;;;;;;5039682;28;20700;-73
2023/07/04 05:16:13;;;;;;;4.03;3.17;;;21.60;81.80;;;;;;5038574;28;20833;-73
2023/07/04 05:18:41;;;;;;;5.50;2.97;;;21.70;81.70;;;;;;5037356;28;20206;-73
2023/07/04 05:21:09;;;;;;;3.10;2.67;;;21.80;81.50;;;;;;5035569;28;20230;-73
2023/07/04 05:23:38;;;;;;;6.70;3.60;;;21.90;81.40;;;;;;5045422;28;20210;-72
2023/07/04 05:26:07;;;;;;;3.23;2.93;;;21.90;81.40;;;;;;5042164;28;20214;-72
2023/07/04 05:28:35;;;;;;;4.63;2.93;;;22.00;81.10;;;;;;5044922;28;20645;-74
2023/07/04 05:31:05;;;;;;;4.07;2.93;;;22.10;81.00;;;;;;5039884;28;20199;-74
2023/07/04 05:33:33;;;;;;;4.83;3.17;;;22.10;80.70;;;;;;5036709;28;20569;-74
2023/07/04 05:36:08;;;;;;;3.93;3.00;;;22.10;80.30;;;;;;5038406;28;20209;-74
2023/07/04 05:38:35;;;;;;;4.33;2.70;;;22.30;80.20;;;;;;5038046;28;20204;-74
2023/07/04 05:41:02;;;;;;;2.93;2.63;;;22.30;79.80;;;;;;5038148;28;20230;-74
2023/07/04 05:43:29;;;;;;;4.50;2.97;;;22.30;79.30;;;;;;5039100;28;20210;-74
2023/07/04 05:45:58;;;;;;;4.53;3.13;;;22.30;79.00;;;;;;5043783;28;20205;-73
2023/07/04 05:48:25;;;;;;;3.83;2.80;;;22.30;78.90;;;;;;5048207;28;20577;-74
2023/07/04 05:50:56;;;;;;;4.97;2.90;;;22.30;78.80;;;;;;5042355;28;20206;-74
2023/07/04 05:53:24;;;;;;;4.40;2.83;;;22.30;78.30;;;;;;5036905;28;20289;-75
2023/07/04 05:55:51;;;;;;;4.23;3.03;;;22.50;78.10;;;;;;5037271;28;20224;-74
2023/07/04 05:58:19;;;;;;;2.50;2.30;;;22.50;76.90;;;;;;5038293;28;20212;-74
2023/07/04 06:00:47;;;;;;;3.87;2.80;;;22.50;76.70;;;;;;5039489;28;20569;-73
2023/07/04 06:03:17;;;;;;;4.43;2.53;;;22.50;76.20;;;;;;5043003;28;20309;-73
2023/07/04 06:05:44;;;;;;;3.30;2.73;;;22.60;75.60;;;;;;5038107;28;20252;-73
2023/07/04 06:08:12;;;;;;;3.93;2.83;;;22.70;75.00;;;;;;5038868;28;20701;-72
2023/07/04 06:10:38;;;;;;;3.40;3.07;;;22.70;74.70;;;;;;5037883;28;20264;-73
2023/07/04 06:13:05;;;;;;;4.13;2.67;;;22.90;74.80;;;;;;5038790;28;20210;-73
2023/07/04 06:15:32;;;;;;;5.17;2.87;;;23.00;73.10;;;;;;5037793;28;20230;-72
2023/07/04 06:18:00;;;;;;;3.33;2.77;;;23.00;72.70;;;;;;5041593;28;20198;-73
2023/07/04 06:20:28;;;;;;;7.13;3.00;;;23.00;70.70;;;;;;5040196;28;20221;-73
2023/07/04 06:22:55;;;;;;;5.07;2.97;;;23.00;70.70;;;;;;5050715;28;20215;-74
2023/07/04 06:25:22;;;;;;;5.70;2.83;;;23.10;70.70;;;;;;5048518;28;20212;-74
2023/07/04 06:27:49;;;;;;;4.13;2.50;;;23.20;69.80;;;;;;5043888;28;21773;-74
2023/07/04 06:30:16;;;;;;;6.67;3.30;;;23.10;68.80;;;;;;5039616;28;20201;-74
2023/07/04 06:32:43;;;;;;;11.47;3.10;;;23.10;68.50;;;;;;5037390;28;20217;-74
2023/07/04 06:35:10;;;;;;;4.63;2.67;;;22.90;67.70;;;;;;5040615;28;20830;-74
2023/07/04 06:37:39;;;;;;;6.20;2.77;;;22.90;67.40;;;;;;5050409;28;20256;-73
2023/07/04 06:40:08;;;;;;;5.27;3.40;;;22.90;66.90;;;;;;5042304;28;20234;-73
2023/07/04 06:42:35;;;;;;;4.87;2.93;;;22.90;66.50;;;;;;5044326;28;20209;-73
2023/07/04 06:45:01;;;;;;;5.70;3.00;;;23.10;67.70;;;;;;5056483;28;20293;-74
2023/07/04 06:47:28;;;;;;;6.87;3.30;;;23.30;66.90;;;;;;5057328;28;20314;-72
2023/07/04 06:49:55;;;;;;;6.27;2.90;;;23.40;67.20;;;;;;5061085;28;20233;-73
2023/07/04 06:52:22;;;;;;;3.67;2.90;;;23.40;65.20;;;;;;5053596;28;20674;-74
2023/07/04 06:54:52;;;;;;;6.17;3.27;;;23.60;65.60;;;;;;5053942;28;20216;-73
2023/07/04 06:57:19;;;;;;;5.20;2.87;;;23.70;64.50;;;;;;5047161;28;20214;-73
2023/07/04 06:59:47;;;;;;;5.03;3.37;;;23.80;64.60;;;;;;5047065;28;20219;-73
2023/07/04 07:02:15;;;;;;;5.27;3.33;;;23.80;62.40;;;;;;5056670;28;20202;-71
2023/07/04 07:04:42;;;;;;;6.00;2.90;;;23.80;62.30;;;;;;5035613;28;20206;-72
2023/07/04 07:07:10;;;;;;;6.77;3.33;;;23.80;62.60;;;;;;5040569;28;20694;-72
2023/07/04 07:09:40;;;;;;;6.60;3.20;;;23.80;62.20;;;;;;5046268;28;20297;-71
2023/07/04 07:12:09;;;;;;;5.63;3.50;;;23.90;62.50;;;;;;5040170;28;20649;-71
2023/07/04 07:14:37;;;;;;;6.83;3.40;;;24.10;62.00;;;;;;5043130;28;20209;-72
2023/07/04 07:17:04;;;;;;;6.13;3.40;;;24.10;60.70;;;;;;5041616;28;20231;-72
2023/07/04 07:19:31;;;;;;;6.30;3.10;;;24.20;61.20;;;;;;5037264;28;20229;-71
2023/07/04 07:21:59;;;;;;;5.87;3.23;;;24.30;60.90;;;;;;5045075;28;20231;-72
2023/07/04 07:24:26;;;;;;;5.70;3.03;;;24.40;61.80;;;;;;5041371;28;20209;-72
2023/07/04 07:26:53;;;;;;;7.50;3.20;;;24.60;62.00;;;;;;5041808;28;20284;-72
2023/07/04 07:29:22;;;;;;;6.67;3.20;;;24.70;61.00;;;;;;5035400;28;20225;-73
2023/07/04 07:31:50;;;;;;;7.47;3.47;;;24.80;60.70;;;;;;5043737;28;20264;-73
2023/07/04 07:34:17;;;;;;;6.30;3.10;;;24.90;60.10;;;;;;5035137;28;20230;-72
2023/07/04 07:36:44;;;;;;;6.77;3.20;;;24.90;60.10;;;;;;5038843;28;20214;-75
2023/07/04 07:39:13;;;;;;;8.57;3.80;;;25.00;60.20;;;;;;5035976;28;20217;-74
2023/07/04 07:41:42;;;;;;;4.97;3.30;;;25.10;58.90;;;;;;5050042;28;20225;-75
2023/07/04 07:44:10;;;;;;;7.40;3.40;;;25.00;58.00;;;;;;5041495;28;20213;-70
2023/07/04 07:46:38;;;;;;;8.23;4.17;;;25.00;59.00;;;;;;5040899;28;20202;-70
2023/07/04 07:49:05;;;;;;;7.37;3.10;;;25.00;57.80;;;;;;5038320;28;20216;-71
2023/07/04 07:51:32;;;;;;;5.50;2.87;;;25.10;58.80;;;;;;5046853;28;20202;-71
2023/07/04 07:54:00;;;;;;;6.67;3.40;;;25.30;58.40;;;;;;5047118;28;20678;-71
2023/07/04 07:56:32;;;;;;;6.77;3.13;;;25.50;57.70;;;;;;5041169;28;20321;-71
2023/07/04 07:59:00;;;;;;;7.33;3.50;;;25.50;56.90;;;;;;5039937;28;20190;-72
2023/07/04 08:01:29;;;;;;;5.13;3.47;;;25.60;56.40;;;;;;5036116;28;20234;-73
2023/07/04 08:03:57;;;;;;;6.23;3.27;;;25.70;56.20;;;;;;5038009;28;20207;-72
2023/07/04 08:06:26;;;;;;;7.33;3.60;;;25.80;55.60;;;;;;5039800;28;20596;-72
2023/07/04 08:08:57;;;;;;;6.20;3.80;;;25.90;55.40;;;;;;5037682;28;20251;-72
2023/07/04 08:11:24;;;;;;;6.20;3.43;;;25.90;54.60;;;;;;5037027;28;20212;-71
2023/07/04 08:13:53;;;;;;;6.30;3.70;;;26.00;54.80;;;;;;5036301;28;20744;-72
2023/07/04 08:16:24;;;;;;;8.47;3.93;;;26.00;54.40;;;;;;5038951;28;20198;-73
2023/07/04 08:18:51;;;;;;;7.60;3.83;;;26.00;53.20;;;;;;5038640;28;20533;-72
2023/07/04 08:21:20;;;;;;;6.13;3.80;;;26.00;53.20;;;;;;5040189;28;20329;-71
2023/07/04 08:23:47;;;;;;;8.70;4.00;;;26.00;52.60;;;;;;5040315;28;20198;-72
2023/07/04 08:26:18;;;;;;;6.07;3.37;;;25.90;52.30;;;;;;5039638;28;20214;-72
2023/07/04 08:28:45;;;;;;;7.73;4.03;;;26.00;52.90;;;;;;5045613;28;20201;-71
2023/07/04 08:31:12;;;;;;;10.17;3.70;;;26.10;51.90;;;;;;5044345;28;20198;-71
2023/07/04 08:33:39;;;;;;;8.47;3.60;;;26.10;52.20;;;;;;5047228;28;20209;-71
2023/07/04 08:36:09;;;;;;;8.33;4.10;;;26.30;52.30;;;;;;5043800;28;20210;-72
2023/07/04 08:38:37;;;;;;;5.87;3.50;;;26.30;50.30;;;;;;5035505;28;20216;-72
2023/07/04 08:41:10;;;;;;;9.47;3.83;;;26.40;51.70;;;;;;5045259;28;20226;-72
2023/07/04 08:43:45;;;;;;;7.23;3.83;;;26.40;50.60;;;;;;5045645;28;20222;-72
2023/07/04 08:46:14;;;;;;;5.03;3.40;;;26.30;51.10;;;;;;5052071;28;20189;-72
2023/07/04 08:48:42;;;;;;;10.40;3.80;;;26.50;52.60;;;;;;5052112;28;20221;-72
2023/07/04 08:51:15;;;;;;;8.17;4.03;;;26.50;51.10;;;;;;5049790;28;20236;-71
2023/07/04 08:53:47;;;;;;;10.70;4.10;;;26.50;49.80;;;;;;5047955;28;20201;-72
2023/07/04 08:56:31;;;;;;;8.50;4.47;;;26.60;50.30;;;;;;5049151;28;20226;-71
2023/07/04 08:59:12;;;;;;;8.13;4.30;;;26.60;50.40;;;;;;5051153;28;20275;-71
2023/07/04 09:01:59;;;;;;;6.43;3.77;;;26.60;48.90;;;;;;5035894;28;20240;-71
2023/07/04 09:04:37;;;;;;;9.47;4.47;;;26.60;48.80;;;;;;5042456;28;20210;-72
2023/07/04 09:07:12;;;;;;;6.83;3.77;;;26.60;48.80;;;;;;5048669;28;20206;-70
2023/07/04 09:09:48;;;;;;;7.80;4.37;;;26.60;49.80;;;;;;5051835;28;20201;-70
2023/07/04 09:12:15;;;;;;;7.67;3.93;;;26.80;49.00;;;;;;5038546;28;20593;-70
2023/07/04 09:14:48;;;;;;;8.87;4.37;;;26.90;48.70;;;;;;5041086;28;20218;-71
2023/07/04 09:17:26;;;;;;;8.43;4.23;;;26.80;48.00;;;;;;5047150;28;20226;-72
2023/07/04 09:19:54;;;;;;;9.17;4.47;;;26.90;47.00;;;;;;5039763;28;20199;-72
2023/07/04 09:22:21;;;;;;;8.70;4.00;;;26.80;48.40;;;;;;5037710;28;20219;-71
2023/07/04 09:24:49;;;;;;;10.20;4.30;;;26.90;48.30;;;;;;5038751;28;20288;-72
2023/07/04 09:27:17;;;;;;;7.30;4.27;;;27.10;48.70;;;;;;5036469;28;20219;-72
2023/07/04 09:29:45;;;;;;;7.63;4.17;;;27.30;47.90;;;;;;5040054;28;20297;-71
2023/07/04 09:32:12;;;;;;;6.13;3.80;;;27.30;47.90;;;;;;5048729;28;20199;-71
2023/07/04 09:34:44;;;;;;;7.60;4.60;;;27.40;48.70;;;;;;5049256;28;20218;-72
2023/07/04 09:37:14;;;;;;;8.90;4.60;;;27.60;47.60;;;;;;5043893;28;20202;-71
2023/07/04 09:39:50;;;;;;;5.03;3.83;;;27.70;47.60;;;;;;5045856;28;20294;-71
2023/07/04 09:42:18;;;;;;;12.27;4.73;;;27.80;46.70;;;;;;5041160;28;20691;-71
2023/07/04 09:44:46;;;;;;;8.03;4.30;;;27.80;46.90;;;;;;5043979;28;21108;-70
2023/07/04 09:47:22;;;;;;;8.20;4.20;;;27.90;46.60;;;;;;5031817;28;20205;-72
2023/07/04 09:50:09;;;;;;;6.80;4.00;;;28.00;46.80;;;;;;5044039;28;20283;-71
2023/07/04 09:52:35;;;;;;;7.17;4.60;;;28.10;45.80;;;;;;5043720;28;20228;-70
2023/07/04 09:55:17;;;;;;;7.90;4.73;;;28.00;45.70;;;;;;5038750;28;20222;-70
2023/07/04 09:57:44;;;;;;;6.23;3.70;;;28.00;46.40;;;;;;5035433;28;20675;-70
2023/07/04 10:00:21;;;;;;;8.10;4.23;;;28.20;45.50;;;;;;5061556;28;20216;-71
2023/07/04 10:02:52;;;;;;;8.07;3.83;;;28.00;44.10;;;;;;5070942;28;20191;-70
2023/07/04 10:05:28;;;;;;;8.07;4.50;;;28.10;44.60;;;;;;5050625;28;20202;-70
2023/07/04 10:08:07;;;;;;;8.23;4.33;;;28.20;42.60;;;;;;5049510;28;20217;-70
2023/07/04 10:10:38;;;;;;;8.40;3.93;;;28.50;43.30;;;;;;5066863;28;20674;-72
2023/07/04 10:13:08;;;;;;;8.10;4.60;;;28.50;41.90;;;;;;5053614;28;20787;-71
2023/07/04 10:15:41;;;;;;;7.47;4.33;;;28.40;41.90;;;;;;5049359;28;20221;-70
2023/07/04 10:18:12;;;;;;;6.23;4.13;;;28.30;42.60;;;;;;5045164;28;20201;-71
2023/07/04 10:20:41;;;;;;;6.33;3.90;;;28.50;43.50;;;;;;5041392;28;20348;-69
2023/07/04 10:23:08;;;;;;;5.53;4.10;;;28.60;43.80;;;;;;5030399;28;20222;-69
2023/07/04 10:25:36;;;;;;;9.07;4.50;;;28.70;40.10;;;;;;5030292;28;20533;-71
2023/07/04 10:28:17;;;;;;;6.43;3.80;;;28.60;40.70;;;;;;5030102;28;20186;-71
2023/07/04 10:30:48;;;;;;;7.50;4.60;;;28.70;41.00;;;;;;5049584;28;20208;-70
2023/07/04 10:33:21;;;;;;;8.13;4.37;;;28.80;40.70;;;;;;5050358;28;20714;-70
2023/07/04 10:35:49;;;;;;;7.60;4.67;;;28.80;42.20;;;;;;5048221;28;20209;-70
2023/07/04 10:38:26;;;;;;;5.63;3.70;;;28.90;42.50;;;;;;5049963;28;20275;-69
2023/07/04 10:40:55;;;;;;;5.97;3.93;;;28.90;40.80;;;;;;5069105;28;20226;-72
2023/07/04 10:43:30;;;;;;;7.93;4.20;;;29.10;38.80;;;;;;5057329;28;20204;-70
2023/07/04 10:46:00;;;;;;;7.80;4.37;;;29.10;39.00;;;;;;5039940;28;20288;-71
2023/07/04 10:48:31;;;;;;;6.90;4.17;;;29.00;39.00;;;;;;5030141;28;20217;-70
2023/07/04 10:51:05;;;;;;;5.53;3.70;;;29.10;39.90;;;;;;5068877;28;20193;-70
2023/07/04 10:53:32;;;;;;;6.77;4.10;;;29.10;39.10;;;;;;5069985;28;20641;-70
2023/07/04 10:56:08;;;;;;;8.87;3.80;;;29.20;39.60;;;;;;5056453;28;20649;-70
2023/07/04 10:58:39;;;;;;;7.63;4.23;;;29.20;39.00;;;;;;5049613;28;20201;-70
2023/07/04 11:01:12;;;;;;;5.80;4.20;;;29.10;39.60;;;;;;5052461;28;20213;-70
2023/07/04 11:03:47;;;;;;;6.30;4.10;;;28.90;40.70;;;;;;5049807;28;20244;-70
2023/07/04 11:06:19;;;;;;;6.63;4.57;;;29.10;41.10;;;;;;5048150;28;20667;-69
2023/07/04 11:08:46;;;;;;;5.40;4.07;;;29.30;39.60;;;;;;5050397;28;20190;-70
2023/07/04 11:11:20;;;;;;;4.73;3.73;;;29.40;40.30;;;;;;5049885;28;20205;-70
2023/07/04 11:13:52;;;;;;;6.30;4.90;;;29.60;41.30;;;;;;5064490;28;20201;-71
2023/07/04 11:16:24;;;;;;;5.37;4.30;;;29.70;39.70;;;;;;5051383;28;20565;-69
2023/07/04 11:19:03;;;;;;;7.20;4.27;;;29.60;39.90;;;;;;5049981;28;20582;-69
2023/07/04 11:21:31;;;;;;;6.23;4.17;;;29.50;39.40;;;;;;5049659;28;20209;-70
2023/07/04 11:24:11;;;;;;;6.77;4.10;;;29.60;40.30;;;;;;5065266;28;20209;-69
2023/07/04 11:26:51;;;;;;;5.17;3.70;;;29.60;38.50;;;;;;5055904;28;20220;-71
2023/07/04 11:29:21;;;;;;;7.93;3.77;;;29.40;38.80;;;;;;5053812;28;20190;-70
2023/07/04 11:32:16;;;;;;;6.63;3.90;;;29.40;39.80;;;;;;5053756;28;20206;-70
2023/07/04 11:34:46;;;;;;;5.67;3.90;;;29.60;39.50;;;;;;5031853;28;20206;-70
2023/07/04 11:37:17;;;;;;;5.40;4.00;;;29.80;39.50;;;;;;5038691;28;20205;-71
2023/07/04 11:39:50;;;;;;;4.60;4.10;;;29.90;38.90;;;;;;5053676;28;20635;-70
2023/07/04 11:42:21;;;;;;;7.73;4.40;;;29.90;38.30;;;;;;5056184;28;20214;-73
2023/07/04 11:45:01;;;;;;;4.57;3.67;;;29.90;37.90;;;;;;5060760;28;20230;-69
2023/07/04 11:47:43;;;;;;;5.33;4.07;;;29.90;38.60;;;;;;5061612;28;20189;-71
2023/07/04 11:50:17;;;;;;;6.00;4.10;;;29.70;38.20;;;;;;5060851;28;20205;-69
2023/07/04 11:52:52;;;;;;;5.97;3.93;;;29.60;38.40;;;;;;5057545;28;20192;-70
2023/07/04 11:55:24;;;;;;;5.13;3.90;;;29.60;39.10;;;;;;5072823;28;20185;-69
2023/07/04 11:58:18;;;;;;;6.13;4.27;;;29.80;38.50;;;;;;5072804;28;20185;-71
2023/07/04 12:01:05;;;;;;;5.77;3.57;;;29.70;37.00;;;;;;5065352;28;20208;-70
2023/07/04 12:04:04;;;;;;;5.57;3.80;;;29.70;37.70;;;;;;5032763;28;20249;-70
2023/07/04 12:06:55;;;;;;;6.23;4.50;;;29.60;37.60;;;;;;5032526;28;20194;-70
2023/07/04 12:09:44;;;;;;;4.90;3.70;;;29.80;38.50;;;;;;5060577;28;20642;-70
2023/07/04 12:12:19;;;;;;;6.90;4.00;;;30.10;38.60;;;;;;5072832;28;20645;-69
2023/07/04 12:14:50;;;;;;;5.27;4.27;;;30.20;38.10;;;;;;5052507;28;20213;-69
2023/07/04 12:17:18;;;;;;;5.23;4.23;;;30.20;37.00;;;;;;5052153;28;20694;-70
2023/07/04 12:19:46;;;;;;;5.00;4.07;;;30.20;38.10;;;;;;5068536;28;20225;-70
2023/07/04 12:22:17;;;;;;;8.13;4.27;;;30.30;37.90;;;;;;5048375;28;20230;-70
2023/07/04 12:24:48;;;;;;;5.07;3.63;;;30.40;37.50;;;;;;5047120;28;20201;-71
2023/07/04 12:27:16;;;;;;;6.53;4.40;;;30.50;37.70;;;;;;5051998;28;20304;-71
2023/07/04 12:29:45;;;;;;;5.40;4.13;;;30.50;37.60;;;;;;5068304;28;20201;-71
2023/07/04 12:32:18;;;;;;;5.07;4.00;;;30.50;37.70;;;;;;5072282;28;20749;-69
2023/07/04 12:34:45;;;;;;;5.90;4.10;;;30.30;37.10;;;;;;5056965;28;20232;-71
2023/07/04 12:37:19;;;;;;;5.60;3.87;;;30.20;37.90;;;;;;5051055;28;20201;-69
2023/07/04 12:39:48;;;;;;;6.53;4.03;;;30.10;37.80;;;;;;5068279;28;20208;-70
2023/07/04 12:42:29;;;;;;;7.00;3.93;;;30.30;37.70;;;;;;5068622;28;20218;-71
2023/07/04 12:44:55;;;;;;;5.80;3.53;;;30.20;37.30;;;;;;5052033;28;20190;-69
2023/07/04 12:47:26;;;;;;;4.40;3.50;;;30.40;39.40;;;;;;5033129;28;20309;-71
2023/07/04 12:49:54;;;;;;;4.93;3.50;;;30.30;37.10;;;;;;5066319;28;20189;-69
2023/07/04 12:52:27;;;;;;;7.00;3.60;;;30.30;37.80;;;;;;5071721;28;20204;-69
2023/07/04 12:54:54;;;;;;;4.93;3.67;;;30.30;37.70;;;;;;5071926;28;20197;-70
2023/07/04 12:57:26;;;;;;;4.97;3.83;;;30.30;37.50;;;;;;5066854;28;20217;-69
2023/07/04 12:59:53;;;;;;;5.67;3.90;;;30.30;37.90;;;;;;5058597;28;20202;-71